sensor_id;sensor_type;location;lat;lon;timestamp;P1;durP1;ratioP1;P2;durP2;ratioP2
70667;SDS011;58242;51.250;-1.118;2023-03-14T00:00:54;4.60;;;3.47;;
70667;SDS011;58242;51.250;-1.118;2023-03-14T00:03:19;4.53;;;3.00;;
70667;SDS011;58242;51.250;-1.118;2023-03-14T00:05:44;5.53;;;3.40;;
70667;SDS011;58242;51.250;-1.118;2023-03-14T00:08:10;10.57;;;4.07;;
70667;SDS011;58242;51.250;-1.118;2023-03-14T00:10:36;10.98;;;3.95;;
70667;SDS011;58242;51.250;-1.118;2023-03-14T00:13:02;7.07;;;3.00;;
70667;SDS011;58242;51.250;-1.118;2023-03-14T00:15:27;5.18;;;3.00;;
70667;SDS011;58242;51.250;-1.118;2023-03-14T00:17:52;5.85;;;3.58;;
70667;SDS011;58242;51.250;-1.118;2023-03-14T00:20:18;6.25;;;3.70;;
70667;SDS011;58242;51.250;-1.118;2023-03-14T00:22:43;3.78;;;3.20;;
70667;SDS011;58242;51.250;-1.118;2023-03-14T00:25:09;4.68;;;2.85;;
70667;SDS011;58242;51.250;-1.118;2023-03-14T00:27:36;5.20;;;2.80;;
70667;SDS011;58242;51.250;-1.118;2023-03-14T00:30:02;7.80;;;3.28;;
70667;SDS011;58242;51.250;-1.118;2023-03-14T00:32:28;6.07;;;3.40;;
70667;SDS011;58242;51.250;-1.118;2023-03-14T00:34:53;5.10;;;2.80;;
70667;SDS011;58242;51.250;-1.118;2023-03-14T00:37:19;3.67;;;2.60;;
70667;SDS011;58242;51.250;-1.118;2023-03-14T00:39:44;2.03;;;1.92;;
70667;SDS011;58242;51.250;-1.118;2023-03-14T00:42:09;2.00;;;1.90;;
70667;SDS011;58242;51.250;-1.118;2023-03-14T00:44:35;1.70;;;1.60;;
70667;SDS011;58242;51.250;-1.118;2023-03-14T00:47:00;1.73;;;1.70;;
70667;SDS011;58242;51.250;-1.118;2023-03-14T00:49:26;1.95;;;1.90;;
70667;SDS011;58242;51.250;-1.118;2023-03-14T00:51:51;1.52;;;1.50;;
70667;SDS011;58242;51.250;-1.118;2023-03-14T00:54:18;1.88;;;1.77;;
70667;SDS011;58242;51.250;-1.118;2023-03-14T00:56:44;1.80;;;1.80;;
70667;SDS011;58242;51.250;-1.118;2023-03-14T00:59:09;1.45;;;1.40;;
70667;SDS011;58242;51.250;-1.118;2023-03-14T01:01:34;1.38;;;1.33;;
70667;SDS011;58242;51.250;-1.118;2023-03-14T01:04:00;1.70;;;1.70;;
70667;SDS011;58242;51.250;-1.118;2023-03-14T01:06:26;1.85;;;1.80;;
70667;SDS011;58242;51.250;-1.118;2023-03-14T01:08:53;1.60;;;1.60;;
70667;SDS011;58242;51.250;-1.118;2023-03-14T01:11:20;2.85;;;1.65;;
70667;SDS011;58242;51.250;-1.118;2023-03-14T01:13:50;1.65;;;1.58;;
70667;SDS011;58242;51.250;-1.118;2023-03-14T01:16:16;1.52;;;1.52;;
70667;SDS011;58242;51.250;-1.118;2023-03-14T01:18:43;1.70;;;1.60;;
70667;SDS011;58242;51.250;-1.118;2023-03-14T01:21:10;1.60;;;1.60;;
70667;SDS011;58242;51.250;-1.118;2023-03-14T01:23:38;1.83;;;1.73;;
70667;SDS011;58242;51.250;-1.118;2023-03-14T01:26:03;2.42;;;1.95;;
70667;SDS011;58242;51.250;-1.118;2023-03-14T01:28:29;1.65;;;1.58;;
70667;SDS011;58242;51.250;-1.118;2023-03-14T01:30:54;1.75;;;1.65;;
70667;SDS011;58242;51.250;-1.118;2023-03-14T01:33:19;1.70;;;1.60;;
70667;SDS011;58242;51.250;-1.118;2023-03-14T01:35:44;2.00;;;1.77;;
70667;SDS011;58242;51.250;-1.118;2023-03-14T01:38:10;1.90;;;1.80;;
70667;SDS011;58242;51.250;-1.118;2023-03-14T01:40:41;2.17;;;1.73;;
70667;SDS011;58242;51.250;-1.118;2023-03-14T01:43:18;1.75;;;1.65;;
70667;SDS011;58242;51.250;-1.118;2023-03-14T01:51:06;1.70;;;1.60;;
70667;SDS011;58242;51.250;-1.118;2023-03-14T01:53:36;1.70;;;1.60;;
70667;SDS011;58242;51.250;-1.118;2023-03-14T01:56:04;2.78;;;2.00;;
70667;SDS011;58242;51.250;-1.118;2023-03-14T01:58:30;1.50;;;1.50;;
70667;SDS011;58242;51.250;-1.118;2023-03-14T02:00:59;1.73;;;1.70;;
70667;SDS011;58242;51.250;-1.118;2023-03-14T02:03:27;1.50;;;1.40;;
70667;SDS011;58242;51.250;-1.118;2023-03-14T02:05:55;1.60;;;1.60;;
70667;SDS011;58242;51.250;-1.118;2023-03-14T02:08:25;1.63;;;1.63;;
70667;SDS011;58242;51.250;-1.118;2023-03-14T02:10:52;1.90;;;1.80;;
70667;SDS011;58242;51.250;-1.118;2023-03-14T02:13:18;2.00;;;1.90;;
70667;SDS011;58242;51.250;-1.118;2023-03-14T02:15:45;2.00;;;1.85;;
70667;SDS011;58242;51.250;-1.118;2023-03-14T02:18:11;2.75;;;1.90;;
70667;SDS011;58242;51.250;-1.118;2023-03-14T02:26:40;1.80;;;1.70;;
70667;SDS011;58242;51.250;-1.118;2023-03-14T02:29:09;2.10;;;2.00;;
70667;SDS011;58242;51.250;-1.118;2023-03-14T02:31:34;1.60;;;1.60;;
70667;SDS011;58242;51.250;-1.118;2023-03-14T02:34:00;1.92;;;1.83;;
70667;SDS011;58242;51.250;-1.118;2023-03-14T02:36:27;1.80;;;1.70;;
70667;SDS011;58242;51.250;-1.118;2023-03-14T02:38:55;5.28;;;2.47;;
70667;SDS011;58242;51.250;-1.118;2023-03-14T02:41:31;3.50;;;2.10;;
70667;SDS011;58242;51.250;-1.118;2023-03-14T02:43:57;2.20;;;2.03;;
70667;SDS011;58242;51.250;-1.118;2023-03-14T02:46:22;2.80;;;2.60;;
70667;SDS011;58242;51.250;-1.118;2023-03-14T02:48:49;2.38;;;2.03;;
70667;SDS011;58242;51.250;-1.118;2023-03-14T02:51:18;2.05;;;1.95;;
70667;SDS011;58242;51.250;-1.118;2023-03-14T02:53:45;4.18;;;2.60;;
70667;SDS011;58242;51.250;-1.118;2023-03-14T02:56:10;4.00;;;2.20;;
70667;SDS011;58242;51.250;-1.118;2023-03-14T02:58:36;7.78;;;2.85;;
70667;SDS011;58242;51.250;-1.118;2023-03-14T03:01:01;4.97;;;2.45;;
70667;SDS011;58242;51.250;-1.118;2023-03-14T03:03:26;3.75;;;2.30;;
70667;SDS011;58242;51.250;-1.118;2023-03-14T03:05:52;5.00;;;2.85;;
70667;SDS011;58242;51.250;-1.118;2023-03-14T03:08:20;4.47;;;2.65;;
70667;SDS011;58242;51.250;-1.118;2023-03-14T03:10:46;3.38;;;2.33;;
70667;SDS011;58242;51.250;-1.118;2023-03-14T03:13:11;4.40;;;2.63;;
70667;SDS011;58242;51.250;-1.118;2023-03-14T03:15:37;3.05;;;2.60;;
70667;SDS011;58242;51.250;-1.118;2023-03-14T03:18:02;3.03;;;2.60;;
70667;SDS011;58242;51.250;-1.118;2023-03-14T03:20:28;3.75;;;2.40;;
70667;SDS011;58242;51.250;-1.118;2023-03-14T03:22:53;4.65;;;2.72;;
70667;SDS011;58242;51.250;-1.118;2023-03-14T03:25:19;3.80;;;2.50;;
70667;SDS011;58242;51.250;-1.118;2023-03-14T03:27:44;2.97;;;2.50;;
70667;SDS011;58242;51.250;-1.118;2023-03-14T03:30:09;3.33;;;2.28;;
70667;SDS011;58242;51.250;-1.118;2023-03-14T03:32:35;3.25;;;2.58;;
70667;SDS011;58242;51.250;-1.118;2023-03-14T03:35:01;7.13;;;3.25;;
70667;SDS011;58242;51.250;-1.118;2023-03-14T03:37:29;3.30;;;2.20;;
70667;SDS011;58242;51.250;-1.118;2023-03-14T03:39:55;3.67;;;2.50;;
70667;SDS011;58242;51.250;-1.118;2023-03-14T03:42:20;6.38;;;2.38;;
70667;SDS011;58242;51.250;-1.118;2023-03-14T03:44:46;4.78;;;3.10;;
70667;SDS011;58242;51.250;-1.118;2023-03-14T03:47:12;5.13;;;2.70;;
70667;SDS011;58242;51.250;-1.118;2023-03-14T03:49:37;6.55;;;2.78;;
70667;SDS011;58242;51.250;-1.118;2023-03-14T03:52:03;9.55;;;3.13;;
70667;SDS011;58242;51.250;-1.118;2023-03-14T03:54:28;7.07;;;3.15;;
70667;SDS011;58242;51.250;-1.118;2023-03-14T03:56:56;4.88;;;2.67;;
70667;SDS011;58242;51.250;-1.118;2023-03-14T03:59:22;8.57;;;3.13;;
70667;SDS011;58242;51.250;-1.118;2023-03-14T04:01:47;7.40;;;3.00;;
70667;SDS011;58242;51.250;-1.118;2023-03-14T04:04:13;6.07;;;3.03;;
70667;SDS011;58242;51.250;-1.118;2023-03-14T04:06:39;6.82;;;3.28;;
70667;SDS011;58242;51.250;-1.118;2023-03-14T04:09:06;3.08;;;2.72;;
70667;SDS011;58242;51.250;-1.118;2023-03-14T04:11:32;6.28;;;2.30;;
70667;SDS011;58242;51.250;-1.118;2023-03-14T04:13:57;5.55;;;2.75;;
70667;SDS011;58242;51.250;-1.118;2023-03-14T04:16:23;7.13;;;2.97;;
70667;SDS011;58242;51.250;-1.118;2023-03-14T04:18:49;7.25;;;2.88;;
70667;SDS011;58242;51.250;-1.118;2023-03-14T04:21:15;5.55;;;2.88;;
70667;SDS011;58242;51.250;-1.118;2023-03-14T04:23:41;5.53;;;2.47;;
70667;SDS011;58242;51.250;-1.118;2023-03-14T04:26:06;4.88;;;2.67;;
70667;SDS011;58242;51.250;-1.118;2023-03-14T04:28:32;5.10;;;2.88;;
70667;SDS011;58242;51.250;-1.118;2023-03-14T04:30:57;6.05;;;2.60;;
70667;SDS011;58242;51.250;-1.118;2023-03-14T04:33:23;2.85;;;2.03;;
70667;SDS011;58242;51.250;-1.118;2023-03-14T04:35:48;3.28;;;2.30;;
70667;SDS011;58242;51.250;-1.118;2023-03-14T04:38:15;3.58;;;2.33;;
70667;SDS011;58242;51.250;-1.118;2023-03-14T04:40:41;3.58;;;2.30;;
70667;SDS011;58242;51.250;-1.118;2023-03-14T04:43:07;5.50;;;2.85;;
70667;SDS011;58242;51.250;-1.118;2023-03-14T04:45:33;4.95;;;2.70;;
70667;SDS011;58242;51.250;-1.118;2023-03-14T04:47:58;3.85;;;2.45;;
70667;SDS011;58242;51.250;-1.118;2023-03-14T04:50:23;5.93;;;2.58;;
70667;SDS011;58242;51.250;-1.118;2023-03-14T04:52:49;9.75;;;2.63;;
70667;SDS011;58242;51.250;-1.118;2023-03-14T04:55:14;3.45;;;2.92;;
70667;SDS011;58242;51.250;-1.118;2023-03-14T04:57:39;7.10;;;2.58;;
70667;SDS011;58242;51.250;-1.118;2023-03-14T05:00:05;5.57;;;2.58;;
70667;SDS011;58242;51.250;-1.118;2023-03-14T05:04:59;4.60;;;2.47;;
70667;SDS011;58242;51.250;-1.118;2023-03-14T05:07:24;6.97;;;2.88;;
70667;SDS011;58242;51.250;-1.118;2023-03-14T05:09:50;4.32;;;2.50;;
70667;SDS011;58242;51.250;-1.118;2023-03-14T05:12:16;6.85;;;2.60;;
70667;SDS011;58242;51.250;-1.118;2023-03-14T05:14:41;5.88;;;2.60;;
70667;SDS011;58242;51.250;-1.118;2023-03-14T05:17:06;4.53;;;2.13;;
70667;SDS011;58242;51.250;-1.118;2023-03-14T05:19:32;6.75;;;2.45;;
70667;SDS011;58242;51.250;-1.118;2023-03-14T05:21:57;5.13;;;2.35;;
70667;SDS011;58242;51.250;-1.118;2023-03-14T05:24:23;4.15;;;2.38;;
70667;SDS011;58242;51.250;-1.118;2023-03-14T05:26:48;8.25;;;3.13;;
70667;SDS011;58242;51.250;-1.118;2023-03-14T05:29:13;7.53;;;2.67;;
70667;SDS011;58242;51.250;-1.118;2023-03-14T05:31:39;5.60;;;2.58;;
70667;SDS011;58242;51.250;-1.118;2023-03-14T05:34:04;4.82;;;2.50;;
70667;SDS011;58242;51.250;-1.118;2023-03-14T05:36:29;5.65;;;2.85;;
70667;SDS011;58242;51.250;-1.118;2023-03-14T05:38:54;6.10;;;2.80;;
70667;SDS011;58242;51.250;-1.118;2023-03-14T05:41:20;7.80;;;3.13;;
70667;SDS011;58242;51.250;-1.118;2023-03-14T05:43:45;6.60;;;2.90;;
70667;SDS011;58242;51.250;-1.118;2023-03-14T05:46:10;7.70;;;2.60;;
70667;SDS011;58242;51.250;-1.118;2023-03-14T05:48:35;4.28;;;2.00;;
70667;SDS011;58242;51.250;-1.118;2023-03-14T05:51:01;5.60;;;2.70;;
70667;SDS011;58242;51.250;-1.118;2023-03-14T05:53:27;7.40;;;2.72;;
70667;SDS011;58242;51.250;-1.118;2023-03-14T05:55:54;5.95;;;2.28;;
70667;SDS011;58242;51.250;-1.118;2023-03-14T05:58:20;8.90;;;2.33;;
70667;SDS011;58242;51.250;-1.118;2023-03-14T06:00:45;3.75;;;2.38;;
70667;SDS011;58242;51.250;-1.118;2023-03-14T06:03:11;5.70;;;2.70;;
70667;SDS011;58242;51.250;-1.118;2023-03-14T06:05:36;4.05;;;2.90;;
70667;SDS011;58242;51.250;-1.118;2023-03-14T06:08:01;6.15;;;2.42;;
70667;SDS011;58242;51.250;-1.118;2023-03-14T06:10:27;4.40;;;2.70;;
70667;SDS011;58242;51.250;-1.118;2023-03-14T06:12:52;7.47;;;3.20;;
70667;SDS011;58242;51.250;-1.118;2023-03-14T06:15:18;3.13;;;2.83;;
70667;SDS011;58242;51.250;-1.118;2023-03-14T06:17:43;4.63;;;2.20;;
70667;SDS011;58242;51.250;-1.118;2023-03-14T06:20:09;4.25;;;2.15;;
70667;SDS011;58242;51.250;-1.118;2023-03-14T06:22:35;4.43;;;2.80;;
70667;SDS011;58242;51.250;-1.118;2023-03-14T06:25:00;7.18;;;3.03;;
70667;SDS011;58242;51.250;-1.118;2023-03-14T06:27:26;4.72;;;2.75;;
70667;SDS011;58242;51.250;-1.118;2023-03-14T06:29:51;5.63;;;2.38;;
70667;SDS011;58242;51.250;-1.118;2023-03-14T06:32:16;7.75;;;2.53;;
70667;SDS011;58242;51.250;-1.118;2023-03-14T06:34:43;3.88;;;2.83;;
70667;SDS011;58242;51.250;-1.118;2023-03-14T06:37:08;5.55;;;2.33;;
70667;SDS011;58242;51.250;-1.118;2023-03-14T06:39:33;6.38;;;2.90;;
70667;SDS011;58242;51.250;-1.118;2023-03-14T06:41:59;4.28;;;2.90;;
70667;SDS011;58242;51.250;-1.118;2023-03-14T06:44:24;6.50;;;3.08;;
70667;SDS011;58242;51.250;-1.118;2023-03-14T06:46:49;3.55;;;1.92;;
70667;SDS011;58242;51.250;-1.118;2023-03-14T06:49:15;6.88;;;2.78;;
70667;SDS011;58242;51.250;-1.118;2023-03-14T06:51:40;4.63;;;2.45;;
70667;SDS011;58242;51.250;-1.118;2023-03-14T06:54:05;4.60;;;2.30;;
70667;SDS011;58242;51.250;-1.118;2023-03-14T06:56:31;3.53;;;2.53;;
70667;SDS011;58242;51.250;-1.118;2023-03-14T06:58:56;7.40;;;3.17;;
70667;SDS011;58242;51.250;-1.118;2023-03-14T07:01:23;3.90;;;2.30;;
70667;SDS011;58242;51.250;-1.118;2023-03-14T07:03:51;7.45;;;2.70;;
70667;SDS011;58242;51.250;-1.118;2023-03-14T07:06:16;8.25;;;2.65;;
70667;SDS011;58242;51.250;-1.118;2023-03-14T07:08:42;9.25;;;3.33;;
70667;SDS011;58242;51.250;-1.118;2023-03-14T07:11:08;6.70;;;2.70;;
70667;SDS011;58242;51.250;-1.118;2023-03-14T07:13:35;7.25;;;2.88;;
70667;SDS011;58242;51.250;-1.118;2023-03-14T07:16:01;6.65;;;2.65;;
70667;SDS011;58242;51.250;-1.118;2023-03-14T07:18:26;4.53;;;2.30;;
70667;SDS011;58242;51.250;-1.118;2023-03-14T07:20:51;4.22;;;2.03;;
70667;SDS011;58242;51.250;-1.118;2023-03-14T07:23:17;4.13;;;2.47;;
70667;SDS011;58242;51.250;-1.118;2023-03-14T07:25:42;4.57;;;2.38;;
70667;SDS011;58242;51.250;-1.118;2023-03-14T07:28:07;3.97;;;2.50;;
70667;SDS011;58242;51.250;-1.118;2023-03-14T07:30:33;3.38;;;2.10;;
70667;SDS011;58242;51.250;-1.118;2023-03-14T07:32:58;6.20;;;2.30;;
70667;SDS011;58242;51.250;-1.118;2023-03-14T07:35:23;5.82;;;2.42;;
70667;SDS011;58242;51.250;-1.118;2023-03-14T07:37:48;6.10;;;2.10;;
70667;SDS011;58242;51.250;-1.118;2023-03-14T07:40:14;4.25;;;2.10;;
70667;SDS011;58242;51.250;-1.118;2023-03-14T07:42:40;5.72;;;2.20;;
70667;SDS011;58242;51.250;-1.118;2023-03-14T07:45:06;8.85;;;2.08;;
70667;SDS011;58242;51.250;-1.118;2023-03-14T07:47:32;3.55;;;2.30;;
70667;SDS011;58242;51.250;-1.118;2023-03-14T07:49:58;2.00;;;1.90;;
70667;SDS011;58242;51.250;-1.118;2023-03-14T07:52:23;6.97;;;2.20;;
70667;SDS011;58242;51.250;-1.118;2023-03-14T07:54:49;3.10;;;2.28;;
70667;SDS011;58242;51.250;-1.118;2023-03-14T07:57:14;4.50;;;2.30;;
70667;SDS011;58242;51.250;-1.118;2023-03-14T07:59:39;4.13;;;2.28;;
70667;SDS011;58242;51.250;-1.118;2023-03-14T08:02:05;4.47;;;2.25;;
70667;SDS011;58242;51.250;-1.118;2023-03-14T08:04:35;2.72;;;2.00;;
70667;SDS011;58242;51.250;-1.118;2023-03-14T08:07:01;2.33;;;1.85;;
70667;SDS011;58242;51.250;-1.118;2023-03-14T08:09:26;3.63;;;2.63;;
70667;SDS011;58242;51.250;-1.118;2023-03-14T08:11:52;5.97;;;2.20;;
70667;SDS011;58242;51.250;-1.118;2023-03-14T08:14:17;2.15;;;1.95;;
70667;SDS011;58242;51.250;-1.118;2023-03-14T08:16:43;4.07;;;1.98;;
70667;SDS011;58242;51.250;-1.118;2023-03-14T08:19:08;4.07;;;2.75;;
70667;SDS011;58242;51.250;-1.118;2023-03-14T08:21:33;6.00;;;2.47;;
70667;SDS011;58242;51.250;-1.118;2023-03-14T08:23:58;3.80;;;2.13;;
70667;SDS011;58242;51.250;-1.118;2023-03-14T08:26:25;4.30;;;2.70;;
70667;SDS011;58242;51.250;-1.118;2023-03-14T08:28:51;3.65;;;2.03;;
70667;SDS011;58242;51.250;-1.118;2023-03-14T08:31:16;2.13;;;1.98;;
70667;SDS011;58242;51.250;-1.118;2023-03-14T08:33:41;2.75;;;2.20;;
70667;SDS011;58242;51.250;-1.118;2023-03-14T08:36:07;4.18;;;2.40;;
70667;SDS011;58242;51.250;-1.118;2023-03-14T08:38:32;4.90;;;2.65;;
70667;SDS011;58242;51.250;-1.118;2023-03-14T08:40:58;2.92;;;1.88;;
70667;SDS011;58242;51.250;-1.118;2023-03-14T08:43:24;5.00;;;2.10;;
70667;SDS011;58242;51.250;-1.118;2023-03-14T08:45:50;2.90;;;1.80;;
70667;SDS011;58242;51.250;-1.118;2023-03-14T08:48:16;2.95;;;2.33;;
70667;SDS011;58242;51.250;-1.118;2023-03-14T08:50:41;2.92;;;1.67;;
70667;SDS011;58242;51.250;-1.118;2023-03-14T08:53:06;3.53;;;1.80;;
70667;SDS011;58242;51.250;-1.118;2023-03-14T08:55:32;1.80;;;1.70;;
70667;SDS011;58242;51.250;-1.118;2023-03-14T08:57:57;1.70;;;1.70;;
70667;SDS011;58242;51.250;-1.118;2023-03-14T09:00:22;3.25;;;2.10;;
70667;SDS011;58242;51.250;-1.118;2023-03-14T09:02:48;3.22;;;1.70;;
70667;SDS011;58242;51.250;-1.118;2023-03-14T09:05:14;3.75;;;2.00;;
70667;SDS011;58242;51.250;-1.118;2023-03-14T09:07:39;1.42;;;1.40;;
70667;SDS011;58242;51.250;-1.118;2023-03-14T09:10:06;1.80;;;1.70;;
70667;SDS011;58242;51.250;-1.118;2023-03-14T09:12:32;1.75;;;1.65;;
70667;SDS011;58242;51.250;-1.118;2023-03-14T09:14:57;1.63;;;1.52;;
70667;SDS011;58242;51.250;-1.118;2023-03-14T09:17:23;2.08;;;1.90;;
70667;SDS011;58242;51.250;-1.118;2023-03-14T09:19:48;2.13;;;1.98;;
70667;SDS011;58242;51.250;-1.118;2023-03-14T09:22:13;1.80;;;1.70;;
70667;SDS011;58242;51.250;-1.118;2023-03-14T09:24:39;2.17;;;2.08;;
70667;SDS011;58242;51.250;-1.118;2023-03-14T09:27:05;1.90;;;1.80;;
70667;SDS011;58242;51.250;-1.118;2023-03-14T09:29:31;1.67;;;1.67;;
70667;SDS011;58242;51.250;-1.118;2023-03-14T09:31:56;2.13;;;2.00;;
70667;SDS011;58242;51.250;-1.118;2023-03-14T09:34:23;1.40;;;1.40;;
70667;SDS011;58242;51.250;-1.118;2023-03-14T09:36:48;1.70;;;1.60;;
70667;SDS011;58242;51.250;-1.118;2023-03-14T09:39:13;1.60;;;1.60;;
70667;SDS011;58242;51.250;-1.118;2023-03-14T09:41:40;1.73;;;1.73;;
70667;SDS011;58242;51.250;-1.118;2023-03-14T09:46:38;1.60;;;1.60;;
70667;SDS011;58242;51.250;-1.118;2023-03-14T09:49:09;2.22;;;2.13;;
70667;SDS011;58242;51.250;-1.118;2023-03-14T09:54:18;3.40;;;2.67;;
70667;SDS011;58242;51.250;-1.118;2023-03-14T09:57:11;3.03;;;2.30;;
70667;SDS011;58242;51.250;-1.118;2023-03-14T09:59:40;4.53;;;2.17;;
70667;SDS011;58242;51.250;-1.118;2023-03-14T10:04:45;2.13;;;2.03;;
70667;SDS011;58242;51.250;-1.118;2023-03-14T10:07:15;6.15;;;2.65;;
70667;SDS011;58242;51.250;-1.118;2023-03-14T10:09:49;2.47;;;2.25;;
70667;SDS011;58242;51.250;-1.118;2023-03-14T10:12:15;2.38;;;2.22;;
70667;SDS011;58242;51.250;-1.118;2023-03-14T10:15:02;2.72;;;1.85;;
70667;SDS011;58242;51.250;-1.118;2023-03-14T10:17:29;3.25;;;2.13;;
70667;SDS011;58242;51.250;-1.118;2023-03-14T10:19:56;4.20;;;2.65;;
70667;SDS011;58242;51.250;-1.118;2023-03-14T10:22:24;3.67;;;3.10;;
70667;SDS011;58242;51.250;-1.118;2023-03-14T10:24:54;3.95;;;3.63;;
70667;SDS011;58242;51.250;-1.118;2023-03-14T10:27:27;4.13;;;3.72;;
70667;SDS011;58242;51.250;-1.118;2023-03-14T10:29:58;4.20;;;3.67;;
70667;SDS011;58242;51.250;-1.118;2023-03-14T10:32:33;3.70;;;2.72;;
70667;SDS011;58242;51.250;-1.118;2023-03-14T10:35:07;3.10;;;2.90;;
70667;SDS011;58242;51.250;-1.118;2023-03-14T10:37:34;3.40;;;3.20;;
70667;SDS011;58242;51.250;-1.118;2023-03-14T10:40:00;4.15;;;3.58;;
70667;SDS011;58242;51.250;-1.118;2023-03-14T10:42:34;3.58;;;2.85;;
70667;SDS011;58242;51.250;-1.118;2023-03-14T10:45:05;3.75;;;3.50;;
70667;SDS011;58242;51.250;-1.118;2023-03-14T10:47:50;4.25;;;3.20;;
70667;SDS011;58242;51.250;-1.118;2023-03-14T10:50:26;3.85;;;3.55;;
70667;SDS011;58242;51.250;-1.118;2023-03-14T10:52:53;3.65;;;3.25;;
70667;SDS011;58242;51.250;-1.118;2023-03-14T10:55:19;3.80;;;2.97;;
70667;SDS011;58242;51.250;-1.118;2023-03-14T10:57:45;3.22;;;3.13;;
70667;SDS011;58242;51.250;-1.118;2023-03-14T11:00:18;3.10;;;2.83;;
70667;SDS011;58242;51.250;-1.118;2023-03-14T11:08:25;4.07;;;3.10;;
70667;SDS011;58242;51.250;-1.118;2023-03-14T11:11:14;5.07;;;2.92;;
70667;SDS011;58242;51.250;-1.118;2023-03-14T11:13:55;3.35;;;3.08;;
70667;SDS011;58242;51.250;-1.118;2023-03-14T11:16:27;3.30;;;2.70;;
70667;SDS011;58242;51.250;-1.118;2023-03-14T11:19:25;3.38;;;3.08;;
70667;SDS011;58242;51.250;-1.118;2023-03-14T11:22:02;3.60;;;2.78;;
70667;SDS011;58242;51.250;-1.118;2023-03-14T11:33:04;3.85;;;2.65;;
70667;SDS011;58242;51.250;-1.118;2023-03-14T11:38:28;3.15;;;2.47;;
70667;SDS011;58242;51.250;-1.118;2023-03-14T11:40:57;3.28;;;2.40;;
70667;SDS011;58242;51.250;-1.118;2023-03-14T11:45:53;4.55;;;2.63;;
70667;SDS011;58242;51.250;-1.118;2023-03-14T11:48:35;3.20;;;2.30;;
70667;SDS011;58242;51.250;-1.118;2023-03-14T11:51:07;3.92;;;2.50;;
70667;SDS011;58242;51.250;-1.118;2023-03-14T11:56:18;2.22;;;2.03;;
70667;SDS011;58242;51.250;-1.118;2023-03-14T11:58:51;2.22;;;2.00;;
70667;SDS011;58242;51.250;-1.118;2023-03-14T12:01:33;2.67;;;2.13;;
70667;SDS011;58242;51.250;-1.118;2023-03-14T12:04:18;4.10;;;2.50;;
70667;SDS011;58242;51.250;-1.118;2023-03-14T12:07:50;2.30;;;2.10;;
70667;SDS011;58242;51.250;-1.118;2023-03-14T12:10:06;2.92;;;2.53;;
70667;SDS011;58242;51.250;-1.118;2023-03-14T12:12:31;2.35;;;2.15;;
70667;SDS011;58242;51.250;-1.118;2023-03-14T12:14:58;2.20;;;2.10;;
70667;SDS011;58242;51.250;-1.118;2023-03-14T12:17:27;3.30;;;2.53;;
70667;SDS011;58242;51.250;-1.118;2023-03-14T12:22:49;2.95;;;2.67;;
70667;SDS011;58242;51.250;-1.118;2023-03-14T12:25:23;2.60;;;2.40;;
70667;SDS011;58242;51.250;-1.118;2023-03-14T12:35:41;2.50;;;2.17;;
70667;SDS011;58242;51.250;-1.118;2023-03-14T12:40:40;2.30;;;2.20;;
70667;SDS011;58242;51.250;-1.118;2023-03-14T12:43:26;2.50;;;2.40;;
70667;SDS011;58242;51.250;-1.118;2023-03-14T12:48:47;2.25;;;2.15;;
70667;SDS011;58242;51.250;-1.118;2023-03-14T12:51:19;2.80;;;2.50;;
70667;SDS011;58242;51.250;-1.118;2023-03-14T13:02:02;2.60;;;2.17;;
70667;SDS011;58242;51.250;-1.118;2023-03-14T13:04:31;2.00;;;1.90;;
70667;SDS011;58242;51.250;-1.118;2023-03-14T13:07:33;2.60;;;2.40;;
70667;SDS011;58242;51.250;-1.118;2023-03-14T13:15:55;2.45;;;2.25;;
70667;SDS011;58242;51.250;-1.118;2023-03-14T13:23:53;1.90;;;1.80;;
70667;SDS011;58242;51.250;-1.118;2023-03-14T13:26:37;2.55;;;2.40;;
70667;SDS011;58242;51.250;-1.118;2023-03-14T13:29:24;1.90;;;1.80;;
70667;SDS011;58242;51.250;-1.118;2023-03-14T13:31:52;1.85;;;1.70;;
70667;SDS011;58242;51.250;-1.118;2023-03-14T13:34:19;1.92;;;1.83;;
70667;SDS011;58242;51.250;-1.118;2023-03-14T13:36:45;1.60;;;1.50;;
70667;SDS011;58242;51.250;-1.118;2023-03-14T13:39:16;2.63;;;1.90;;
70667;SDS011;58242;51.250;-1.118;2023-03-14T13:41:43;2.00;;;1.90;;
70667;SDS011;58242;51.250;-1.118;2023-03-14T13:44:15;1.70;;;1.60;;
70667;SDS011;58242;51.250;-1.118;2023-03-14T13:46:47;1.90;;;1.80;;
70667;SDS011;58242;51.250;-1.118;2023-03-14T13:49:22;2.72;;;1.75;;
70667;SDS011;58242;51.250;-1.118;2023-03-14T13:51:49;1.80;;;1.70;;
70667;SDS011;58242;51.250;-1.118;2023-03-14T13:54:15;1.90;;;1.80;;
70667;SDS011;58242;51.250;-1.118;2023-03-14T13:56:42;2.00;;;1.90;;
70667;SDS011;58242;51.250;-1.118;2023-03-14T13:59:20;2.33;;;2.13;;
70667;SDS011;58242;51.250;-1.118;2023-03-14T14:01:47;1.52;;;1.52;;
70667;SDS011;58242;51.250;-1.118;2023-03-14T14:04:16;1.90;;;1.80;;
70667;SDS011;58242;51.250;-1.118;2023-03-14T14:06:45;1.38;;;1.38;;
70667;SDS011;58242;51.250;-1.118;2023-03-14T14:09:16;1.73;;;1.70;;
70667;SDS011;58242;51.250;-1.118;2023-03-14T14:11:52;1.58;;;1.55;;
70667;SDS011;58242;51.250;-1.118;2023-03-14T14:14:44;2.08;;;1.90;;
70667;SDS011;58242;51.250;-1.118;2023-03-14T14:17:14;2.20;;;2.10;;
70667;SDS011;58242;51.250;-1.118;2023-03-14T14:19:43;2.35;;;1.92;;
70667;SDS011;58242;51.250;-1.118;2023-03-14T14:22:09;1.60;;;1.60;;
70667;SDS011;58242;51.250;-1.118;2023-03-14T14:24:35;2.55;;;2.30;;
70667;SDS011;58242;51.250;-1.118;2023-03-14T14:30:01;2.08;;;1.98;;
70667;SDS011;58242;51.250;-1.118;2023-03-14T14:32:35;1.95;;;1.95;;
70667;SDS011;58242;51.250;-1.118;2023-03-14T14:35:02;2.30;;;2.20;;
70667;SDS011;58242;51.250;-1.118;2023-03-14T14:37:32;2.25;;;2.15;;
70667;SDS011;58242;51.250;-1.118;2023-03-14T14:43:02;1.70;;;1.70;;
70667;SDS011;58242;51.250;-1.118;2023-03-14T14:45:28;2.10;;;2.00;;
70667;SDS011;58242;51.250;-1.118;2023-03-14T14:47:55;2.08;;;2.03;;
70667;SDS011;58242;51.250;-1.118;2023-03-14T14:53:26;2.38;;;2.15;;
70667;SDS011;58242;51.250;-1.118;2023-03-14T14:55:57;2.40;;;2.30;;
70667;SDS011;58242;51.250;-1.118;2023-03-14T14:58:25;2.00;;;1.90;;
70667;SDS011;58242;51.250;-1.118;2023-03-14T15:03:32;1.92;;;1.85;;
70667;SDS011;58242;51.250;-1.118;2023-03-14T15:05:59;2.30;;;2.10;;
70667;SDS011;58242;51.250;-1.118;2023-03-14T15:08:26;2.30;;;2.20;;
70667;SDS011;58242;51.250;-1.118;2023-03-14T15:10:52;2.17;;;2.03;;
70667;SDS011;58242;51.250;-1.118;2023-03-14T15:13:19;2.65;;;2.20;;
70667;SDS011;58242;51.250;-1.118;2023-03-14T15:15:44;2.42;;;2.28;;
70667;SDS011;58242;51.250;-1.118;2023-03-14T15:18:15;2.10;;;2.00;;
70667;SDS011;58242;51.250;-1.118;2023-03-14T15:20:42;2.35;;;2.25;;
70667;SDS011;58242;51.250;-1.118;2023-03-14T15:23:12;2.10;;;2.00;;
70667;SDS011;58242;51.250;-1.118;2023-03-14T15:25:39;2.10;;;2.00;;
70667;SDS011;58242;51.250;-1.118;2023-03-14T15:30:45;2.60;;;2.40;;
70667;SDS011;58242;51.250;-1.118;2023-03-14T15:33:14;2.08;;;1.98;;
70667;SDS011;58242;51.250;-1.118;2023-03-14T15:35:40;2.35;;;2.25;;
70667;SDS011;58242;51.250;-1.118;2023-03-14T15:38:09;2.10;;;1.95;;
70667;SDS011;58242;51.250;-1.118;2023-03-14T15:40:38;2.40;;;2.30;;
70667;SDS011;58242;51.250;-1.118;2023-03-14T15:43:04;2.22;;;2.10;;
70667;SDS011;58242;51.250;-1.118;2023-03-14T15:45:29;2.33;;;2.22;;
70667;SDS011;58242;51.250;-1.118;2023-03-14T15:47:55;2.00;;;1.98;;
70667;SDS011;58242;51.250;-1.118;2023-03-14T15:50:20;2.08;;;2.03;;
70667;SDS011;58242;51.250;-1.118;2023-03-14T15:52:46;2.20;;;2.10;;
70667;SDS011;58242;51.250;-1.118;2023-03-14T15:55:11;2.70;;;2.50;;
70667;SDS011;58242;51.250;-1.118;2023-03-14T15:57:36;3.13;;;2.20;;
70667;SDS011;58242;51.250;-1.118;2023-03-14T16:00:02;3.08;;;2.60;;
70667;SDS011;58242;51.250;-1.118;2023-03-14T16:02:36;3.13;;;2.92;;
70667;SDS011;58242;51.250;-1.118;2023-03-14T16:05:05;2.38;;;2.28;;
70667;SDS011;58242;51.250;-1.118;2023-03-14T16:07:30;2.63;;;2.53;;
70667;SDS011;58242;51.250;-1.118;2023-03-14T16:09:56;2.53;;;2.42;;